createdAt,value
2018-09-19T00:00:35.576Z,11.80
2018-09-19T00:03:04.402Z,9.40
2018-09-19T00:05:33.260Z,14.53
2018-09-19T00:08:02.664Z,10.83
2018-09-19T00:10:31.346Z,9.10
2018-09-19T00:13:00.139Z,13.63
2018-09-19T00:15:28.829Z,11.60
2018-09-19T00:17:57.433Z,11.07
2018-09-19T00:20:26.779Z,14.37
2018-09-19T00:22:55.413Z,10.53
2018-09-19T00:25:24.056Z,13.73
2018-09-19T00:27:52.757Z,13.03
2018-09-19T00:30:21.379Z,11.77
2018-09-19T00:32:50.054Z,11.33
2018-09-19T00:35:18.681Z,9.50
2018-09-19T00:37:47.338Z,11.97
2018-09-19T00:40:16.055Z,9.77
2018-09-19T00:42:45.683Z,10.60
2018-09-19T00:45:14.370Z,9.63
2018-09-19T00:47:43.004Z,15.40
2018-09-19T00:50:11.682Z,13.40
2018-09-19T00:52:40.299Z,10.83
2018-09-19T00:55:09.217Z,17.23
2018-09-19T00:57:37.953Z,11.77
2018-09-19T01:00:07.166Z,15.20
2018-09-19T01:02:35.959Z,13.90
2018-09-19T01:05:04.975Z,13.37
2018-09-19T01:07:33.621Z,13.43
2018-09-19T01:10:02.316Z,12.97
2018-09-19T01:12:30.947Z,14.50
2018-09-19T01:14:59.613Z,15.93
2018-09-19T01:17:28.272Z,15.57
2018-09-19T01:19:56.966Z,25.90
2018-09-19T01:22:25.992Z,16.57
2018-09-19T01:24:54.656Z,13.07
2018-09-19T01:27:23.423Z,17.97
2018-09-19T01:29:52.017Z,14.97
2018-09-19T01:32:20.815Z,7.50
2018-09-19T01:34:49.613Z,13.83
2018-09-19T01:37:18.354Z,15.63
2018-09-19T01:39:46.998Z,14.83
2018-09-19T01:42:15.906Z,14.30
2018-09-19T01:44:45.120Z,12.10
2018-09-19T01:47:13.891Z,15.80
2018-09-19T01:49:42.598Z,13.83
2018-09-19T01:52:11.276Z,9.37
2018-09-19T01:54:39.922Z,10.80
2018-09-19T01:57:08.701Z,14.47
2018-09-19T01:59:37.372Z,13.57
2018-09-19T02:02:06.742Z,13.97
2018-09-19T02:04:35.423Z,10.77
2018-09-19T02:07:04.105Z,11.70
2018-09-19T02:09:32.841Z,11.50
2018-09-19T02:12:01.838Z,13.40
2018-09-19T02:14:30.594Z,14.97
2018-09-19T02:16:59.564Z,13.30
2018-09-19T02:19:28.460Z,11.60
2018-09-19T02:21:57.103Z,13.57
2018-09-19T02:24:25.763Z,15.17
2018-09-19T02:26:55.019Z,10.87
2018-09-19T02:29:24.516Z,12.03
2018-09-19T02:31:53.211Z,17.97
2018-09-19T02:34:21.795Z,13.53
2018-09-19T02:36:50.617Z,18.00
2018-09-19T02:39:19.238Z,16.90
2018-09-19T02:41:48.557Z,13.20
2018-09-19T02:44:17.834Z,14.93
2018-09-19T02:46:46.538Z,14.50
2018-09-19T02:49:15.192Z,18.03
2018-09-19T02:51:43.852Z,10.47
2018-09-19T02:54:12.484Z,12.50
2018-09-19T02:56:41.113Z,17.17
2018-09-19T02:59:09.852Z,17.23
2018-09-19T03:01:38.665Z,16.20
2018-09-19T03:04:07.346Z,15.90
2018-09-19T03:06:36.009Z,11.17
2018-09-19T03:09:05.925Z,17.70
2018-09-19T03:11:34.523Z,16.47
2018-09-19T03:14:03.202Z,14.83
2018-09-19T03:16:31.844Z,14.60
2018-09-19T03:19:00.416Z,17.37
2018-09-19T03:21:28.979Z,11.87
2018-09-19T03:23:57.558Z,18.80
2018-09-19T03:26:26.212Z,20.43
2018-09-19T03:28:54.865Z,14.17
2018-09-19T03:31:23.525Z,17.13
2018-09-19T03:33:52.185Z,14.90
2018-09-19T03:36:20.735Z,14.63
2018-09-19T03:38:49.642Z,13.33
2018-09-19T03:41:18.255Z,19.43
2018-09-19T03:43:46.950Z,17.97
2018-09-19T03:46:16.243Z,18.13
2018-09-19T03:48:45.719Z,13.47
2018-09-19T03:51:14.359Z,11.77
2018-09-19T03:53:43.044Z,10.50
2018-09-19T03:56:12.492Z,15.53
2018-09-19T03:58:41.183Z,13.70
2018-09-19T04:01:09.812Z,13.67
2018-09-19T04:03:38.949Z,16.43
2018-09-19T04:06:07.574Z,26.30
2018-09-19T04:08:36.189Z,15.50
2018-09-19T04:11:04.742Z,18.60
2018-09-19T04:13:33.311Z,14.27
2018-09-19T04:16:01.918Z,19.00
2018-09-19T04:18:30.492Z,17.33
2018-09-19T04:20:59.159Z,19.43
2018-09-19T04:23:27.805Z,18.70
2018-09-19T04:25:56.487Z,16.87
2018-09-19T04:28:25.168Z,14.63
2018-09-19T04:30:53.801Z,20.73
2018-09-19T04:33:22.439Z,17.63
2018-09-19T04:35:51.013Z,17.10
2018-09-19T04:38:19.609Z,16.17
2018-09-19T04:40:48.426Z,21.73
2018-09-19T04:43:17.056Z,16.30
2018-09-19T04:45:45.684Z,14.50
2018-09-19T04:48:14.380Z,13.47
2018-09-19T04:50:45.332Z,19.83
2018-09-19T04:53:14.275Z,24.17
2018-09-19T04:55:42.874Z,13.70
2018-09-19T04:58:11.671Z,19.90
2018-09-19T05:00:40.264Z,18.23
2018-09-19T05:03:09.005Z,27.93
2018-09-19T05:05:37.835Z,23.17
2018-09-19T05:08:06.893Z,24.70
2018-09-19T05:10:35.633Z,22.97
2018-09-19T05:13:04.419Z,26.50
2018-09-19T05:15:33.942Z,27.17
2018-09-19T05:18:02.572Z,36.33
2018-09-19T05:20:31.169Z,36.63
2018-09-19T05:22:59.809Z,33.73
2018-09-19T05:25:28.411Z,36.37
2018-09-19T05:27:57.013Z,43.93
2018-09-19T05:30:25.687Z,50.07
2018-09-19T05:32:54.317Z,46.17
2018-09-19T05:35:22.954Z,42.50
2018-09-19T05:37:51.707Z,45.87
2018-09-19T05:40:20.400Z,46.93
2018-09-19T05:42:49.227Z,47.30
2018-09-19T05:45:18.068Z,43.43
2018-09-19T05:47:46.835Z,45.10
2018-09-19T05:50:15.521Z,40.43
2018-09-19T05:52:44.219Z,41.90
2018-09-19T05:55:12.994Z,38.63
2018-09-19T05:57:41.737Z,33.33
2018-09-19T06:00:10.988Z,35.97
2018-09-19T06:02:39.618Z,41.60
2018-09-19T06:05:13.381Z,30.93
2018-09-19T06:07:42.343Z,32.30
2018-09-19T06:10:11.741Z,30.27
2018-09-19T06:12:40.813Z,33.67
2018-09-19T06:15:09.827Z,23.93
2018-09-19T06:17:38.755Z,32.97
2018-09-19T06:20:07.390Z,26.33
2018-09-19T06:22:36.255Z,27.17
2018-09-19T06:25:06.425Z,26.83
2018-09-19T06:27:35.273Z,27.50
2018-09-19T06:30:04.056Z,22.97
2018-09-19T06:32:33.631Z,18.57
2018-09-19T06:35:02.584Z,23.07
2018-09-19T06:37:31.467Z,27.17
2018-09-19T06:40:00.451Z,26.57
2018-09-19T06:42:29.644Z,17.70
2018-09-19T06:44:58.850Z,28.17
2018-09-19T06:47:32.094Z,29.17
2018-09-19T06:50:00.965Z,24.90
2018-09-19T06:52:31.182Z,26.47
2018-09-19T06:55:01.818Z,21.67
2018-09-19T06:57:31.248Z,21.03
2018-09-19T07:00:00.563Z,23.63
2018-09-19T07:02:29.313Z,21.60
2018-09-19T07:04:58.442Z,19.93
2018-09-19T07:07:28.869Z,17.40
2018-09-19T07:09:57.819Z,23.50
2018-09-19T07:12:28.036Z,20.67
2018-09-19T07:14:56.924Z,20.93
2018-09-19T07:17:30.144Z,26.87
2018-09-19T07:19:59.369Z,21.03
2018-09-19T07:22:28.857Z,27.40
2018-09-19T07:24:57.925Z,20.13
2018-09-19T07:27:27.296Z,26.00
2018-09-19T07:29:56.473Z,21.07
2018-09-19T07:32:25.306Z,25.37
2018-09-19T07:34:55.169Z,37.73
2018-09-19T07:37:24.047Z,43.03
2018-09-19T07:39:53.025Z,23.83
2018-09-19T07:42:22.300Z,24.03
2018-09-19T07:44:51.208Z,19.80
2018-09-19T07:47:20.074Z,20.17
2018-09-19T07:49:49.613Z,25.60
2018-09-19T07:52:20.208Z,20.17
2018-09-19T07:54:50.133Z,21.97
2018-09-19T07:57:20.467Z,23.93
2018-09-19T07:59:49.515Z,25.23
2018-09-19T08:02:18.446Z,27.23
2018-09-19T08:04:54.671Z,22.80
2018-09-19T08:07:23.658Z,21.27
2018-09-19T08:10:05.378Z,19.80
2018-09-19T08:12:34.660Z,23.77
2018-09-19T08:15:03.523Z,21.93
2018-09-19T08:17:40.314Z,23.07
2018-09-19T08:20:09.863Z,15.67
2018-09-19T08:22:38.851Z,21.10
2018-09-19T08:25:07.807Z,21.57
2018-09-19T08:27:37.129Z,22.10
2018-09-19T08:30:05.816Z,19.57
2018-09-19T08:32:34.471Z,24.27
2018-09-19T08:35:03.215Z,26.30
2018-09-19T08:37:32.735Z,20.77
2018-09-19T08:40:01.488Z,22.07
2018-09-19T08:42:31.056Z,24.93
2018-09-19T08:44:59.830Z,23.63
2018-09-19T08:47:28.567Z,24.77
2018-09-19T08:49:57.526Z,23.57
2018-09-19T08:52:26.235Z,20.37
2018-09-19T08:54:56.386Z,25.40
2018-09-19T08:57:25.200Z,19.23
2018-09-19T08:59:53.834Z,17.53
2018-09-19T09:02:22.870Z,17.10
2018-09-19T09:04:51.703Z,18.37
2018-09-19T09:07:21.015Z,17.57
2018-09-19T09:09:50.708Z,18.97
2018-09-19T09:12:19.514Z,21.60
2018-09-19T09:14:48.173Z,18.13
2018-09-19T09:17:16.899Z,21.60
2018-09-19T09:19:45.608Z,18.07
2018-09-19T09:22:14.384Z,19.87
2018-09-19T09:24:43.157Z,24.57
2018-09-19T09:27:12.164Z,14.17
2018-09-19T09:29:40.817Z,16.47
2018-09-19T09:32:09.538Z,14.13
2018-09-19T09:34:38.365Z,19.63
2018-09-19T09:37:07.146Z,17.33
2018-09-19T09:39:36.515Z,16.90
2018-09-19T09:42:05.331Z,35.37
2018-09-19T09:44:34.076Z,19.73
2018-09-19T09:47:03.060Z,15.50
2018-09-19T09:49:31.785Z,17.57
2018-09-19T09:52:00.605Z,16.10
2018-09-19T09:54:29.300Z,21.47
2018-09-19T09:56:58.772Z,22.07
2018-09-19T09:59:27.383Z,14.70
2018-09-19T10:01:56.179Z,17.33
2018-09-19T10:04:24.893Z,11.93
2018-09-19T10:06:53.538Z,11.30
2018-09-19T10:09:22.183Z,13.90
2018-09-19T10:11:50.901Z,12.00
2018-09-19T10:14:19.596Z,15.27
2018-09-19T10:16:48.891Z,15.37
2018-09-19T10:19:17.620Z,19.30
2018-09-19T10:21:46.318Z,17.67
2018-09-19T10:24:15.009Z,14.30
2018-09-19T10:26:43.903Z,16.70
2018-09-19T10:29:12.780Z,13.70
2018-09-19T10:31:41.528Z,12.33
2018-09-19T10:34:10.304Z,12.23
2018-09-19T10:36:39.082Z,14.10
2018-09-19T10:39:08.158Z,14.27
2018-09-19T10:41:37.151Z,15.40
2018-09-19T10:44:05.994Z,13.97
2018-09-19T10:46:34.724Z,11.93
2018-09-19T10:49:04.018Z,14.33
2018-09-19T10:51:32.695Z,10.07
2018-09-19T10:54:01.502Z,18.27
2018-09-19T10:56:30.196Z,19.10
2018-09-19T10:58:58.861Z,12.43
2018-09-19T11:01:28.153Z,14.80
2018-09-19T11:03:56.797Z,14.17
2018-09-19T11:06:25.432Z,10.27
2018-09-19T11:09:00.540Z,9.60
2018-09-19T11:11:29.198Z,11.33
2018-09-19T11:13:57.840Z,12.10
2018-09-19T11:16:26.477Z,11.67
2018-09-19T11:18:55.174Z,9.67
2018-09-19T11:21:23.859Z,11.23
2018-09-19T11:23:52.633Z,6.40
2018-09-19T11:26:21.409Z,10.07
2018-09-19T11:28:50.136Z,11.50
2018-09-19T11:31:18.869Z,9.57
2018-09-19T11:33:47.556Z,10.13
2018-09-19T11:36:16.288Z,7.97
2018-09-19T11:38:44.946Z,9.20
2018-09-19T11:41:13.589Z,9.57
2018-09-19T11:43:43.538Z,7.57
2018-09-19T11:46:12.284Z,9.20
2018-09-19T11:48:40.995Z,28.53
2018-09-19T11:51:09.669Z,11.80
2018-09-19T11:53:38.304Z,9.53
2018-09-19T11:56:07.017Z,8.83
2018-09-19T11:58:35.734Z,14.93
2018-09-19T12:01:04.502Z,12.23
2018-09-19T12:03:33.231Z,8.70
2018-09-19T12:06:01.958Z,15.73
2018-09-19T12:08:31.268Z,7.17
2018-09-19T12:11:00.003Z,8.37
2018-09-19T12:13:28.675Z,10.90
2018-09-19T12:15:57.354Z,7.40
2018-09-19T12:18:26.077Z,14.70
2018-09-19T12:20:54.774Z,8.47
2018-09-19T12:23:23.600Z,15.40
2018-09-19T12:25:52.403Z,10.73
2018-09-19T12:28:21.166Z,5.47
2018-09-19T12:30:50.138Z,11.80
2018-09-19T12:33:19.011Z,10.33
2018-09-19T12:35:47.766Z,13.17
2018-09-19T12:38:16.584Z,9.90
2018-09-19T12:40:45.293Z,8.53
2018-09-19T12:43:14.034Z,39.27
2018-09-19T12:45:42.726Z,13.17
2018-09-19T12:48:11.839Z,7.57
2018-09-19T12:50:40.723Z,20.47
2018-09-19T12:53:09.435Z,28.30
2018-09-19T12:55:38.178Z,10.53
2018-09-19T12:58:06.906Z,19.43
2018-09-19T13:00:35.596Z,12.07
2018-09-19T13:03:04.346Z,14.43
2018-09-19T13:05:32.947Z,9.67
2018-09-19T13:08:01.662Z,7.47
2018-09-19T13:10:30.401Z,8.33
2018-09-19T13:13:02.737Z,11.40
2018-09-19T13:15:31.382Z,12.93
2018-09-19T13:18:00.115Z,9.07
2018-09-19T13:20:28.801Z,11.00
2018-09-19T13:22:57.498Z,9.70
2018-09-19T13:25:26.247Z,10.37
2018-09-19T13:27:55.053Z,11.63
2018-09-19T13:30:23.716Z,8.17
2018-09-19T13:32:52.535Z,9.63
2018-09-19T13:35:21.228Z,10.23
2018-09-19T13:37:50.043Z,8.27
2018-09-19T13:40:18.678Z,8.87
2018-09-19T13:42:47.361Z,9.00
2018-09-19T13:45:16.088Z,8.73
2018-09-19T13:47:44.767Z,8.93
2018-09-19T13:51:22.861Z,9.70
2018-09-19T13:53:51.843Z,11.07
2018-09-19T13:56:21.065Z,8.33
2018-09-19T13:58:49.917Z,11.43
2018-09-19T14:01:18.713Z,12.37
2018-09-19T14:03:47.524Z,6.97
2018-09-19T14:06:16.197Z,10.33
2018-09-19T14:08:44.925Z,10.00
2018-09-19T14:11:13.557Z,12.30
2018-09-19T14:13:42.227Z,9.73
2018-09-19T14:16:10.837Z,8.80
2018-09-19T14:18:39.496Z,8.30
2018-09-19T14:21:08.269Z,12.50
2018-09-19T14:23:36.833Z,11.77
2018-09-19T14:26:06.063Z,7.43
2018-09-19T14:28:34.748Z,9.23
2018-09-19T14:31:03.491Z,13.87
2018-09-19T14:33:32.715Z,11.90
2018-09-19T14:36:02.034Z,18.17
2018-09-19T14:38:30.879Z,7.73
2018-09-19T14:40:59.493Z,8.27
2018-09-19T14:43:28.326Z,9.17
2018-09-19T14:45:57.037Z,12.93
2018-09-19T14:48:26.503Z,14.50
2018-09-19T14:50:55.136Z,8.57
2018-09-19T14:53:23.933Z,7.93
2018-09-19T14:55:52.728Z,8.70
2018-09-19T14:58:21.699Z,9.87
2018-09-19T15:00:50.564Z,11.40
2018-09-19T15:03:19.305Z,10.17
2018-09-19T15:05:48.150Z,9.17
2018-09-19T15:08:17.180Z,7.50
2018-09-19T15:10:46.253Z,9.10
2018-09-19T15:13:15.238Z,10.40
2018-09-19T15:15:44.027Z,12.70
2018-09-19T15:18:13.017Z,11.13
2018-09-19T15:20:41.704Z,8.80
2018-09-19T15:23:10.507Z,10.70
2018-09-19T15:25:39.381Z,10.40
2018-09-19T15:28:12.727Z,13.17
2018-09-19T15:30:45.935Z,10.40
2018-09-19T15:33:15.737Z,9.23
2018-09-19T15:35:44.566Z,10.17
2018-09-19T15:38:13.432Z,9.70
2018-09-19T15:40:42.302Z,9.50
2018-09-19T15:43:11.197Z,21.07
2018-09-19T15:45:40.186Z,6.73
2018-09-19T15:48:09.129Z,9.20
2018-09-19T15:50:38.597Z,9.77
2018-09-19T15:53:07.396Z,8.47
2018-09-19T15:55:36.166Z,9.40
2018-09-19T15:58:05.518Z,11.63
2018-09-19T16:00:35.117Z,8.43
2018-09-19T16:03:03.897Z,10.43
2018-09-19T16:05:32.700Z,7.70
2018-09-19T16:08:02.168Z,7.10
2018-09-19T16:10:30.977Z,10.37
2018-09-19T16:13:00.160Z,13.33
2018-09-19T16:15:29.025Z,12.70
2018-09-19T16:17:57.795Z,10.77
2018-09-19T16:20:26.636Z,8.83
2018-09-19T16:22:56.569Z,6.53
2018-09-19T16:25:26.531Z,9.67
2018-09-19T16:27:55.517Z,11.43
2018-09-19T16:30:24.482Z,7.67
2018-09-19T16:32:53.476Z,8.47
2018-09-19T16:35:22.347Z,8.17
2018-09-19T16:37:51.126Z,10.60
2018-09-19T16:40:19.866Z,10.07
2018-09-19T16:42:49.238Z,8.40
2018-09-19T16:45:19.205Z,11.73
2018-09-19T16:47:48.776Z,8.60
2018-09-19T16:50:17.781Z,11.97
2018-09-19T16:52:46.727Z,10.73
2018-09-19T16:55:15.506Z,11.80
2018-09-19T16:57:45.168Z,10.73
2018-09-19T17:00:15.406Z,8.63
2018-09-19T17:02:45.075Z,9.70
2018-09-19T17:05:13.926Z,7.33
2018-09-19T17:07:43.501Z,11.50
2018-09-19T17:10:13.024Z,10.33
2018-09-19T17:12:43.118Z,7.97
2018-09-19T17:15:13.338Z,9.40
2018-09-19T17:17:42.066Z,12.00
2018-09-19T17:20:10.922Z,9.73
2018-09-19T17:22:39.649Z,10.50
2018-09-19T17:25:08.414Z,9.83
2018-09-19T17:27:38.362Z,10.67
2018-09-19T17:30:07.632Z,9.10
2018-09-19T17:32:36.470Z,9.87
2018-09-19T18:03:16.413Z,9.10
2018-09-19T18:05:45.166Z,10.37
2018-09-19T18:08:13.842Z,9.67
2018-09-19T18:10:42.494Z,10.83
2018-09-19T18:13:11.165Z,7.67
2018-09-19T18:15:41.227Z,9.53
2018-09-19T18:18:10.805Z,7.57
2018-09-19T18:20:40.787Z,9.70
2018-09-19T18:23:10.150Z,7.17
2018-09-19T18:25:39.775Z,8.63
2018-09-19T18:28:10.129Z,8.93
2018-09-19T18:30:39.597Z,6.67
2018-09-19T18:33:11.012Z,12.10
2018-09-19T18:35:39.885Z,8.83
2018-09-19T18:38:09.000Z,8.97
2018-09-19T18:40:38.163Z,10.63
2018-09-19T18:43:06.836Z,13.07
2018-09-19T18:45:35.757Z,8.03
2018-09-19T18:48:04.500Z,12.33
2018-09-19T18:50:33.150Z,7.40
2018-09-19T18:53:01.859Z,9.40
2018-09-19T18:55:30.662Z,9.43
2018-09-19T18:57:59.516Z,11.57
2018-09-19T19:00:28.197Z,7.87
2018-09-19T19:02:56.901Z,7.80
2018-09-19T19:05:25.538Z,7.77
2018-09-19T19:07:54.286Z,8.73
2018-09-19T19:10:24.065Z,10.40
2018-09-19T19:12:52.872Z,10.83
2018-09-19T19:15:21.517Z,7.90
2018-09-19T19:17:50.151Z,12.00
2018-09-19T19:20:18.775Z,6.97
2018-09-19T19:22:47.410Z,9.80
2018-09-19T19:25:16.760Z,7.17
2018-09-19T19:27:45.363Z,8.03
2018-09-19T19:30:14.021Z,8.07
2018-09-19T19:32:42.835Z,8.40
2018-09-19T19:35:11.919Z,9.37
2018-09-19T19:37:41.377Z,7.03
2018-09-19T19:40:09.963Z,10.53
2018-09-19T19:42:39.364Z,8.60
2018-09-19T19:45:08.089Z,12.00
2018-09-19T19:47:37.122Z,10.63
2018-09-19T19:50:06.081Z,9.03
2018-09-19T19:52:35.030Z,12.67
2018-09-19T19:55:03.614Z,11.67
2018-09-19T19:57:32.679Z,9.13
2018-09-19T20:00:01.402Z,11.47
2018-09-19T20:02:30.107Z,12.20
2018-09-19T20:04:59.151Z,5.47
2018-09-19T20:07:27.818Z,11.43
2018-09-19T20:09:56.502Z,10.70
2018-09-19T20:12:25.186Z,17.07
2018-09-19T20:14:54.005Z,11.27
2018-09-19T20:17:22.787Z,9.97
2018-09-19T20:19:51.398Z,8.97
2018-09-19T20:22:20.816Z,9.83
2018-09-19T20:24:49.508Z,8.63
2018-09-19T20:27:18.174Z,9.97
2018-09-19T20:29:47.165Z,9.93
2018-09-19T20:32:15.833Z,7.63
2018-09-19T20:34:44.589Z,9.90
2018-09-19T20:37:13.557Z,10.60
2018-09-19T20:39:42.263Z,8.00
2018-09-19T20:42:11.002Z,11.93
2018-09-19T20:44:39.711Z,10.13
2018-09-19T20:47:08.413Z,11.20
2018-09-19T20:49:37.201Z,17.60
2018-09-19T20:52:05.860Z,12.70
2018-09-19T20:54:36.054Z,11.70
2018-09-19T20:57:04.719Z,11.97
2018-09-19T20:59:33.288Z,12.00
2018-09-19T21:02:01.862Z,8.30
2018-09-19T21:04:30.656Z,13.67
2018-09-19T21:06:59.360Z,10.20
2018-09-19T21:09:27.970Z,13.60
2018-09-19T21:11:56.928Z,9.53
2018-09-19T21:14:25.601Z,10.33
2018-09-19T21:16:54.315Z,9.77
2018-09-19T21:19:23.003Z,12.00
2018-09-19T21:21:51.620Z,10.73
2018-09-19T21:24:20.288Z,16.43
2018-09-19T21:26:48.977Z,14.60
2018-09-19T21:29:18.134Z,15.20
2018-09-19T21:31:46.702Z,15.53
2018-09-19T21:34:15.435Z,16.67
2018-09-19T21:36:44.035Z,15.13
2018-09-19T21:39:12.646Z,11.87
2018-09-19T21:41:41.234Z,14.93
2018-09-19T21:44:09.831Z,10.23
2018-09-19T21:46:38.447Z,10.73
2018-09-19T21:49:08.191Z,12.33
2018-09-19T21:51:36.809Z,13.17
2018-09-19T21:54:05.390Z,15.07
2018-09-19T21:56:34.030Z,16.67
2018-09-19T21:59:02.792Z,14.13
2018-09-19T22:01:36.552Z,13.57
2018-09-19T22:04:05.208Z,11.53
2018-09-19T22:06:33.743Z,17.10
2018-09-19T22:09:02.363Z,14.87
2018-09-19T22:11:31.013Z,15.77
2018-09-19T22:14:00.200Z,10.27
2018-09-19T22:16:28.797Z,13.53
2018-09-19T22:18:57.440Z,13.57
2018-09-19T22:21:25.996Z,14.33
2018-09-19T22:23:54.646Z,11.70
2018-09-19T22:26:23.258Z,9.13
2018-09-19T22:28:51.873Z,15.20
2018-09-19T22:31:20.415Z,14.17
2018-09-19T22:33:49.002Z,14.17
2018-09-19T22:36:18.270Z,14.10
2018-09-19T22:38:46.982Z,15.13
2018-09-19T22:41:15.732Z,12.33
2018-09-19T22:43:44.318Z,13.50
2018-09-19T22:46:13.121Z,13.13
2018-09-19T22:48:41.771Z,13.73
2018-09-19T22:51:10.385Z,20.23
2018-09-19T22:53:39.472Z,11.80
2018-09-19T22:56:08.112Z,12.90
2018-09-19T22:58:36.790Z,14.80
